Historyczne dane pomiarowe

Dodano dane terminowe – wersja testowa.

Dane z okresu 1951-2019

Wersja bazy: 1.34 [2019-03-16, lista zmian], aktualizacja planowana na 2019-04-15

Dane meteo z obszaru Polski uzyskane na podstawie danych udostępnionych przez Instytut Meteorologii i Gospodarki Wodnej – Państwowy Instytut Badawczy.

 

Wybierz Datę:    

       

TemperaturaWilgotnośćWiatrCiśnienieOpadyŚniegCzas trwania zjawisk
 Stacja t tx tn tng RH VA  wxwx mslp ppp RRR   cm mm wxwxwxwxwxwxwx
1999-08-14 16.2 22.4 10.6 9.3 90.0- 5.0 1.7---- 0.0------------
1999-08-13 16.3 21.2 12.8 12.2 89.8- 6.0 2.0---- 0.0------------
1999-08-12 16.7 21.3 13.0 11.5 84.5- 4.7 3.0---- 0.3------------
1999-08-11 20.8 25.2 17.5 15.9 86.0- 4.0 2.7---- 0.0------------
1999-08-10 20.8 28.9 14.2 11.2 79.0- 5.7 1.7---- 1.4------------
1999-08-09 22.7 29.9 17.0 13.9 82.8- 4.3 1.7---- 0.2------------
1999-08-08 23.1 28.3 17.6 14.1 71.5- 7.0 0.7---- 0.1------------
1999-08-07 22.5 29.7 14.6 11.4 66.0- 2.7 0.7---- 3.0------------
1999-08-06 21.3 27.1 15.0 11.2 67.5- 7.3 1.0---- 0.0------------
1999-08-05 18.4 27.7 8.2 6.5 64.8- 4.3 0.7---- 0.0------------
1999-08-04 19.0 26.9 9.2 6.5 71.3- 3.0 1.0---- 0.0------------
1999-08-03 19.1 26.7 8.3 5.2 67.0- 2.0 1.3---- 0.0------------
1999-08-02 18.5 25.7 11.7 12.2 62.0- 2.3 1.0---- 0.0------------
1999-08-01 19.5 26.4 12.8 10.0 53.3- 3.3 1.0---- 0.0------------
1999-07-31 20.3 27.3 13.0 8.3 64.0- 2.0 1.0---- 0.0------------
1999-07-30 19.3 26.1 12.2 7.8 64.8- 1.3 1.3---- 0.0------------
1999-07-29 19.0 24.9 12.1 9.8 62.0- 2.7 1.3---- 0.0------------
1999-07-28 18.1 24.5 12.4 10.2 85.0- 3.3 1.3---- 0.5------------
1999-07-27 19.1 23.7 15.2 15.1 66.0- 4.0 1.7---- 0.0------------
1999-07-26 21.2 28.3 13.8 13.3 68.8- 2.7 1.0---- 0.0------------
1999-07-25 19.7 27.4 9.8 9.7 71.3- 4.0 1.0---- 0.0------------
1999-07-24 19.3 22.7 16.4 14.6 73.0- 4.7 1.0---- 0.0------------
1999-07-23 17.4 21.5 13.4 11.5 73.8- 7.0 1.3---- 0.0------------
1999-07-22 20.3 25.7 17.2 13.8 65.8- 6.7 2.0---- 0.4------------
1999-07-21 23.5 28.9 17.6 14.3 66.8- 5.0 1.7---- 0.0------------
1999-07-20 23.7 30.6 15.0 12.7 63.5- 1.3 1.0---- 0.0------------
1999-07-19 22.7 28.9 16.7 13.4 69.3- 2.7 1.3---- 0.2------------
1999-07-18 20.8 26.4 14.7 11.8 68.3- 3.3 1.0---- 0.0------------
1999-07-17 18.5 24.7 11.3 9.5 71.8- 2.3 1.7---- 0.0------------
1999-07-16 16.7 21.0 12.7 11.2 82.5- 4.7 1.7---- 4.8------------
1999-07-15 18.0 21.2 14.8 14.4 78.5- 5.3 2.7---- 0.2------------
1999-07-14 21.0 27.5 16.7 15.4 86.3- 6.0 2.7---- 24.3------------
1999-07-13 20.9 28.3 16.6 15.7 75.8- 6.7 2.3---- 15.3------------
1999-07-12 21.8 29.1 13.5 11.6 66.3- 4.7 3.0---- 0.0------------
1999-07-11 20.7 27.1 11.8 9.4 66.5- 0.3 2.0---- 0.0------------
1999-07-10 20.6 25.3 15.7 13.9 66.0- 0.0 1.7---- 0.0------------
1999-07-09 20.0 25.1 15.7 15.6 78.3- 8.0 2.0---- 0.0------------
1999-07-08 18.1 20.6 16.1 15.6 93.3- 8.0 1.7---- 11.8------------
1999-07-07 21.5 28.5 17.8 17.0 89.5- 8.0 1.3---- 0.1------------
1999-07-06 25.9 32.9 18.2 17.3 62.0- 3.3 2.3---- 5.1------------
1999-07-05 25.7 33.4 16.4 14.7 59.8- 0.3 1.7---- 0.0------------
1999-07-04 24.6 31.9 14.8 11.8 57.3- 0.0 1.3---- 0.0------------
1999-07-03 21.9 26.9 16.8 15.4 68.8- 1.3 1.3---- 0.0------------
1999-07-02 21.0 25.4 12.7 14.9 59.3- 5.3 2.3---- 0.0------------
1999-07-01 20.6 27.1 12.7 10.5 72.5- 6.0 1.3---- 0.0------------
1999-06-30 20.0 25.4 13.6 10.8 71.3- 4.3 1.3---- 0.0------------
1999-06-29 20.4 24.7 16.3 14.6 70.8- 3.7 1.3---- 0.0------------
1999-06-28 21.2 27.7 13.2 9.3 69.3- 2.7 1.7---- 0.0------------
1999-06-27 19.4 25.8 10.2 10.8 62.3- 0.7 3.7---- 0.0------------
1999-06-26 16.9 22.5 11.2 7.6 77.8- 5.7 2.0---- 0.0------------
1999-06-25 13.8 16.8 10.7 8.8 85.8- 6.0 1.0---- 0.0------------
1999-06-24 13.4 18.0 8.2 7.2 75.0- 6.0 2.3---- 0.0------------
1999-06-23 10.5 12.4 8.4 8.5 94.5- 8.0 2.7---- 12.4------------
1999-06-22 12.1 17.0 9.6 10.4 95.0- 8.0 2.3---- 28.1------------
1999-06-21 17.9 22.9 14.8 11.5 90.3- 7.3 2.0---- 9.1------------
1999-06-20 18.7 22.5 14.2 11.9 84.5- 6.0 1.3---- 0.0------------
1999-06-19 19.7 24.9 15.5 13.3 85.5- 6.7 1.7---- 0.0------------
1999-06-18 18.0 20.8 16.3 14.4 92.8- 8.0 2.0---- 1.5------------
1999-06-17 19.4 22.7 16.7 15.9 90.3- 7.7 2.0---- 0.0------------
1999-06-16 18.6 22.1 16.3 16.2 97.8- 8.0 1.0---- 0.6------------
536.8 ms

 

Źródłem pochodzenia danych jest Instytut Meteorologii i Gospodarki Wodnej – Państwowy Instytut Badawczy. Dane Instytutu Meteorologii i Gospodarki Wodnej – Państwowego Instytutu Badawczego zostały przetworzone.

Dane źródłowe można odnaleźć na stronie https://dane.imgw.pl